createdAt,value
2018-11-14T00:02:08.936Z,4.60
2018-11-14T00:04:37.003Z,4.73
2018-11-14T00:07:05.262Z,4.40
2018-11-14T00:09:33.357Z,4.23
2018-11-14T00:12:01.497Z,3.80
2018-11-14T00:14:29.588Z,4.63
2018-11-14T00:16:57.704Z,5.27
2018-11-14T00:19:25.834Z,4.13
2018-11-14T00:21:53.982Z,4.50
2018-11-14T00:24:22.071Z,4.50
2018-11-14T00:26:50.459Z,4.80
2018-11-14T00:29:18.441Z,4.77
2018-11-14T00:31:46.478Z,5.50
2018-11-14T00:34:14.566Z,4.23
2018-11-14T00:36:42.758Z,4.27
2018-11-14T00:39:11.904Z,3.80
2018-11-14T00:41:40.072Z,4.70
2018-11-14T00:44:08.163Z,4.17
2018-11-14T00:46:36.274Z,4.67
2018-11-14T00:49:04.943Z,4.43
2018-11-14T00:51:33.024Z,4.50
2018-11-14T00:54:01.165Z,5.03
2018-11-14T00:56:29.278Z,4.30
2018-11-14T00:58:57.398Z,4.40
2018-11-14T01:01:25.550Z,5.13
2018-11-14T01:03:53.808Z,4.77
2018-11-14T01:06:21.923Z,4.33
2018-11-14T01:08:50.027Z,5.20
2018-11-14T01:11:18.147Z,5.70
2018-11-14T01:13:46.259Z,4.50
2018-11-14T01:16:14.382Z,5.73
2018-11-14T01:18:42.516Z,5.07
2018-11-14T01:21:10.633Z,5.10
2018-11-14T01:23:38.758Z,4.90
2018-11-14T01:26:06.863Z,4.37
2018-11-14T01:28:34.997Z,4.90
2018-11-14T01:31:03.091Z,4.67
2018-11-14T01:33:31.211Z,4.80
2018-11-14T01:35:59.329Z,4.30
2018-11-14T01:38:27.469Z,4.87
2018-11-14T01:40:55.607Z,4.63
2018-11-14T01:43:23.686Z,4.67
2018-11-14T01:45:51.805Z,4.30
2018-11-14T01:48:19.936Z,4.43
2018-11-14T01:50:48.052Z,4.27
2018-11-14T01:53:16.136Z,4.70
2018-11-14T01:55:44.216Z,4.20
2018-11-14T01:58:18.686Z,4.43
2018-11-14T02:00:46.768Z,5.33
2018-11-14T02:03:14.847Z,4.50
2018-11-14T02:05:42.924Z,4.70
2018-11-14T02:08:11.001Z,4.80
2018-11-14T02:10:39.081Z,4.63
2018-11-14T02:13:07.159Z,5.90
2018-11-14T02:15:35.248Z,5.50
2018-11-14T02:18:03.352Z,5.17
2018-11-14T02:20:31.430Z,5.63
2018-11-14T02:22:59.532Z,6.03
2018-11-14T02:25:27.612Z,5.87
2018-11-14T02:27:55.699Z,7.30
2018-11-14T02:30:24.370Z,6.17
2018-11-14T02:32:52.777Z,6.43
2018-11-14T02:35:20.856Z,5.97
2018-11-14T02:37:49.265Z,6.63
2018-11-14T02:40:18.520Z,6.00
2018-11-14T02:42:46.586Z,7.00
2018-11-14T02:45:14.902Z,7.40
2018-11-14T02:47:43.000Z,6.40
2018-11-14T02:50:13.359Z,6.27
2018-11-14T02:52:41.438Z,5.90
2018-11-14T02:55:10.757Z,6.53
2018-11-14T02:57:38.837Z,8.43
2018-11-14T03:00:13.330Z,6.03
2018-11-14T03:02:41.730Z,6.10
2018-11-14T03:05:09.828Z,6.10
2018-11-14T03:07:38.156Z,6.00
2018-11-14T03:10:09.561Z,6.67
2018-11-14T03:12:37.862Z,7.00
2018-11-14T03:15:08.472Z,5.97
2018-11-14T03:17:36.588Z,5.80
2018-11-14T03:20:07.095Z,6.67
2018-11-14T03:22:35.182Z,7.00
2018-11-14T03:25:03.447Z,6.23
2018-11-14T03:27:31.561Z,6.97
2018-11-14T03:29:59.647Z,6.40
2018-11-14T03:32:27.728Z,6.20
2018-11-14T03:34:55.815Z,6.23
2018-11-14T03:37:23.893Z,6.80
2018-11-14T03:39:51.988Z,6.60
2018-11-14T03:42:20.083Z,6.40
2018-11-14T03:44:48.175Z,9.00
2018-11-14T03:47:16.246Z,6.27
2018-11-14T03:49:44.382Z,6.80
2018-11-14T03:55:05.649Z,5.53
2018-11-14T03:57:33.812Z,7.00
2018-11-14T04:00:01.899Z,7.13
2018-11-14T04:02:29.986Z,6.67
2018-11-14T04:04:58.074Z,7.20
2018-11-14T04:07:26.175Z,6.40
2018-11-14T04:09:54.276Z,6.30
2018-11-14T04:12:22.391Z,6.70
2018-11-14T04:14:50.452Z,7.03
2018-11-14T04:17:18.559Z,7.43
2018-11-14T04:19:46.670Z,7.43
2018-11-14T04:22:14.759Z,7.50
2018-11-14T04:24:42.859Z,7.40
2018-11-14T04:27:10.926Z,7.00
2018-11-14T04:29:39.020Z,6.37
2018-11-14T04:32:07.114Z,7.20
2018-11-14T04:34:35.197Z,6.13
2018-11-14T04:37:03.303Z,6.03
2018-11-14T04:39:31.402Z,5.50
2018-11-14T04:41:59.492Z,6.90
2018-11-14T04:44:27.575Z,5.47
2018-11-14T04:46:55.684Z,7.07
2018-11-14T04:49:23.779Z,6.03
2018-11-14T04:51:51.891Z,7.30
2018-11-14T04:54:27.149Z,6.13
2018-11-14T04:56:55.271Z,5.73
2018-11-14T04:59:23.351Z,6.23
2018-11-14T05:01:51.452Z,6.20
2018-11-14T05:04:19.524Z,6.80
2018-11-14T05:06:47.619Z,6.50
2018-11-14T05:09:15.712Z,6.13
2018-11-14T05:11:43.812Z,6.20
2018-11-14T05:14:11.901Z,5.57
2018-11-14T05:16:40.011Z,5.80
2018-11-14T05:19:08.106Z,5.63
2018-11-14T05:21:36.243Z,4.77
2018-11-14T05:24:04.329Z,4.80
2018-11-14T05:26:32.627Z,5.10
2018-11-14T05:29:00.786Z,5.27
2018-11-14T05:31:28.883Z,4.27
2018-11-14T05:33:56.994Z,4.63
2018-11-14T05:36:25.080Z,5.30
2018-11-14T05:38:53.264Z,4.93
2018-11-14T05:41:21.351Z,5.77
2018-11-14T05:43:49.440Z,5.10
2018-11-14T05:46:17.546Z,5.87
2018-11-14T05:48:45.639Z,5.70
2018-11-14T05:51:13.758Z,6.20
2018-11-14T05:53:41.828Z,6.20
2018-11-14T05:56:09.921Z,6.77
2018-11-14T05:58:38.040Z,4.80
2018-11-14T06:01:06.260Z,5.47
2018-11-14T06:03:34.369Z,5.03
2018-11-14T06:06:02.459Z,5.57
2018-11-14T06:08:30.564Z,5.80
2018-11-14T06:10:58.651Z,5.40
2018-11-14T06:13:26.744Z,6.40
2018-11-14T06:15:54.889Z,6.10
2018-11-14T06:18:22.992Z,7.10
2018-11-14T06:20:51.093Z,6.60
2018-11-14T06:23:19.177Z,6.23
2018-11-14T06:25:47.272Z,6.63
2018-11-14T06:28:15.376Z,6.73
2018-11-14T06:30:43.503Z,7.10
2018-11-14T06:33:12.119Z,6.63
2018-11-14T06:35:40.233Z,7.90
2018-11-14T06:38:08.331Z,7.23
2018-11-14T06:40:36.943Z,7.77
2018-11-14T06:43:05.064Z,7.10
2018-11-14T06:45:33.696Z,7.20
2018-11-14T06:48:02.504Z,7.50
2018-11-14T06:50:30.595Z,7.30
2018-11-14T06:53:00.183Z,7.13
2018-11-14T06:55:28.280Z,7.00
2018-11-14T06:57:56.373Z,6.13
2018-11-14T07:00:25.618Z,5.83
2018-11-14T07:02:54.195Z,4.93
2018-11-14T07:05:22.378Z,5.40
2018-11-14T07:07:50.435Z,5.57
2018-11-14T07:10:19.969Z,4.90
2018-11-14T07:12:48.051Z,6.03
2018-11-14T07:15:18.355Z,5.63
2018-11-14T07:17:47.104Z,6.20
2018-11-14T07:20:18.801Z,6.03
2018-11-14T07:22:46.887Z,5.83
2018-11-14T07:25:15.464Z,6.27
2018-11-14T07:27:43.573Z,7.80
2018-11-14T07:30:14.062Z,6.60
2018-11-14T07:32:43.486Z,7.60
2018-11-14T07:35:12.879Z,7.00
2018-11-14T07:37:41.366Z,7.40
2018-11-14T07:40:12.308Z,7.00
2018-11-14T07:42:41.183Z,6.03
2018-11-14T07:45:11.554Z,6.10
2018-11-14T07:47:39.628Z,6.83
2018-11-14T07:50:10.749Z,7.13
2018-11-14T07:52:38.818Z,7.03
2018-11-14T07:55:07.964Z,6.60
2018-11-14T07:57:36.164Z,6.67
2018-11-14T08:00:05.926Z,8.30
2018-11-14T08:02:33.984Z,7.13
2018-11-14T08:05:02.070Z,7.13
2018-11-14T08:07:30.140Z,7.83
2018-11-14T08:09:58.220Z,7.60
2018-11-14T08:12:26.304Z,8.50
2018-11-14T08:14:54.476Z,8.10
2018-11-14T08:17:22.549Z,7.97
2018-11-14T08:19:50.644Z,7.40
2018-11-14T08:22:18.728Z,8.20
2018-11-14T08:24:46.853Z,7.80
2018-11-14T08:27:14.859Z,7.33
2018-11-14T08:29:42.968Z,7.73
2018-11-14T08:32:11.047Z,8.13
2018-11-14T08:34:39.115Z,8.20
2018-11-14T08:37:07.193Z,5.80
2018-11-14T08:39:35.312Z,5.70
2018-11-14T08:42:03.396Z,5.40
2018-11-14T08:44:31.493Z,5.30
2018-11-14T08:46:59.576Z,3.40
2018-11-14T08:49:27.664Z,4.20
2018-11-14T08:51:55.743Z,4.90
2018-11-14T08:54:23.813Z,4.20
2018-11-14T08:56:51.904Z,3.87
2018-11-14T08:59:20.021Z,4.10
2018-11-14T09:01:48.085Z,3.10
2018-11-14T09:04:16.256Z,3.67
2018-11-14T09:06:44.319Z,3.37
2018-11-14T09:09:12.488Z,3.43
2018-11-14T09:11:40.574Z,2.90
2018-11-14T09:14:08.654Z,4.77
2018-11-14T09:16:36.762Z,4.13
2018-11-14T09:19:04.999Z,3.00
2018-11-14T09:21:33.079Z,3.20
2018-11-14T09:24:01.431Z,4.00
2018-11-14T09:26:29.518Z,4.47
2018-11-14T09:28:57.587Z,3.53
2018-11-14T09:31:25.667Z,3.13
2018-11-14T09:33:53.815Z,3.33
2018-11-14T09:36:21.911Z,2.60
2018-11-14T09:38:49.987Z,2.50
2018-11-14T09:41:18.180Z,2.80
2018-11-14T09:43:46.176Z,2.80
2018-11-14T09:46:14.207Z,2.80
2018-11-14T09:48:42.304Z,2.10
2018-11-14T09:51:10.398Z,3.30
2018-11-14T09:53:38.477Z,2.50
2018-11-14T09:56:06.575Z,2.60
2018-11-14T09:58:34.710Z,2.30
2018-11-14T10:01:02.737Z,2.80
2018-11-14T10:03:30.822Z,2.97
2018-11-14T10:05:58.962Z,2.60
2018-11-14T10:08:26.972Z,2.47
2018-11-14T10:10:55.107Z,2.40
2018-11-14T10:13:23.127Z,2.27
2018-11-14T10:15:51.353Z,2.37
2018-11-14T10:18:19.319Z,3.20
2018-11-14T10:20:47.369Z,2.07
2018-11-14T10:23:15.428Z,2.80
2018-11-14T10:25:43.502Z,1.80
2018-11-14T10:28:11.568Z,2.87
2018-11-14T10:30:39.649Z,2.50
2018-11-14T10:33:07.720Z,1.70
2018-11-14T10:35:35.784Z,1.93
2018-11-14T10:38:03.859Z,2.00
2018-11-14T10:40:31.925Z,2.23
2018-11-14T10:43:00.148Z,1.70
2018-11-14T10:45:28.375Z,1.50
2018-11-14T10:47:56.509Z,1.77
2018-11-14T10:50:25.757Z,2.60
2018-11-14T10:52:53.859Z,1.63
2018-11-14T10:55:22.321Z,1.50
2018-11-14T10:57:50.850Z,1.73
2018-11-14T11:00:26.539Z,3.30
2018-11-14T11:03:00.165Z,1.97
2018-11-14T11:05:32.540Z,2.13
2018-11-14T11:08:06.488Z,1.87
2018-11-14T11:10:39.895Z,1.50
2018-11-14T11:13:25.272Z,1.60
2018-11-14T11:15:58.960Z,1.67
2018-11-14T11:18:28.639Z,1.40
2018-11-14T11:20:56.704Z,1.80
2018-11-14T11:23:24.841Z,1.83
2018-11-14T11:25:52.939Z,1.40
2018-11-14T11:28:21.226Z,1.80
2018-11-14T11:30:49.392Z,1.33
2018-11-14T11:33:17.382Z,1.87
2018-11-14T11:35:45.485Z,1.80
2018-11-14T11:38:13.608Z,1.87
2018-11-14T11:40:43.094Z,2.00
2018-11-14T11:43:11.197Z,1.50
2018-11-14T11:45:39.284Z,1.90
2018-11-14T11:48:07.380Z,1.97
2018-11-14T11:50:35.522Z,1.83
2018-11-14T11:53:03.628Z,1.17
2018-11-14T11:55:31.724Z,1.67
2018-11-14T11:57:59.812Z,1.77
2018-11-14T12:00:28.051Z,1.70
2018-11-14T12:02:55.975Z,1.77
2018-11-14T12:05:24.065Z,1.80
2018-11-14T12:07:52.190Z,1.47
2018-11-14T12:10:20.281Z,1.67
2018-11-14T12:12:48.393Z,1.57
2018-11-14T12:15:16.447Z,1.60
2018-11-14T12:17:44.754Z,1.47
2018-11-14T12:20:14.131Z,2.40
2018-11-14T12:22:42.731Z,1.50
2018-11-14T12:25:12.732Z,1.77
2018-11-14T12:27:40.970Z,3.00
2018-11-14T12:30:10.940Z,1.73
2018-11-14T12:32:39.104Z,1.40
2018-11-14T12:35:08.456Z,1.80
2018-11-14T12:37:36.489Z,1.57
2018-11-14T12:40:05.461Z,1.93
2018-11-14T12:42:33.634Z,1.60
2018-11-14T12:45:01.918Z,2.07
2018-11-14T12:47:29.920Z,1.37
2018-11-14T12:49:58.008Z,1.50
2018-11-14T12:52:26.093Z,1.03
2018-11-14T12:54:54.161Z,1.53
2018-11-14T12:57:22.237Z,1.47
2018-11-14T12:59:50.328Z,1.90
2018-11-14T13:02:18.390Z,1.40
2018-11-14T13:04:46.468Z,1.70
2018-11-14T13:07:14.542Z,1.30
2018-11-14T13:09:42.617Z,1.67
2018-11-14T13:12:10.694Z,1.20
2018-11-14T13:14:38.802Z,1.13
2018-11-14T13:17:06.895Z,1.60
2018-11-14T13:19:34.971Z,1.30
2018-11-14T13:22:03.049Z,2.53
2018-11-14T13:24:31.120Z,1.20
2018-11-14T13:26:59.383Z,1.63
2018-11-14T13:29:27.668Z,1.70
2018-11-14T13:31:55.737Z,1.50
2018-11-14T13:34:24.457Z,1.97
2018-11-14T13:36:52.540Z,1.50
2018-11-14T13:39:20.603Z,1.50
2018-11-14T13:41:48.726Z,1.17
2018-11-14T13:44:16.827Z,1.40
2018-11-14T13:46:44.922Z,1.70
2018-11-14T13:49:13.117Z,1.93
2018-11-14T13:51:41.094Z,1.23
2018-11-14T13:54:09.164Z,1.00
2018-11-14T13:56:37.247Z,1.70
2018-11-14T13:59:05.385Z,1.93
2018-11-14T14:01:33.467Z,1.50
2018-11-14T14:04:01.538Z,1.30
2018-11-14T14:06:30.075Z,1.70
2018-11-14T14:08:58.244Z,1.67
2018-11-14T14:11:26.318Z,1.90
2018-11-14T14:13:59.848Z,1.87
2018-11-14T14:16:28.005Z,1.80
2018-11-14T14:18:56.034Z,1.30
2018-11-14T14:21:24.449Z,1.50
2018-11-14T14:23:52.555Z,1.30
2018-11-14T14:26:20.648Z,1.40
2018-11-14T14:28:48.738Z,1.50
2018-11-14T14:31:16.839Z,1.47
2018-11-14T14:33:44.924Z,1.67
2018-11-14T14:36:13.024Z,2.23
2018-11-14T14:38:41.113Z,2.03
2018-11-14T14:41:09.215Z,1.83
2018-11-14T14:43:37.288Z,1.80
2018-11-14T14:46:05.736Z,2.00
2018-11-14T14:48:33.850Z,1.93
2018-11-14T14:51:01.924Z,1.63
2018-11-14T14:53:29.995Z,1.70
2018-11-14T14:55:58.116Z,2.07
2018-11-14T14:58:26.201Z,1.73
2018-11-14T15:00:54.283Z,1.70
2018-11-14T15:03:22.395Z,2.00
2018-11-14T15:05:53.988Z,2.67
2018-11-14T15:08:22.087Z,2.30
2018-11-14T15:10:50.176Z,2.40
2018-11-14T15:13:18.262Z,1.77
2018-11-14T15:15:46.435Z,1.73
2018-11-14T15:18:14.451Z,2.00
2018-11-14T15:20:42.544Z,2.00
2018-11-14T15:23:10.622Z,1.70
2018-11-14T15:25:38.712Z,1.73
2018-11-14T15:28:06.802Z,2.00
2018-11-14T15:30:35.072Z,2.17
2018-11-14T15:33:03.261Z,2.13
2018-11-14T15:35:31.361Z,3.03
2018-11-14T15:37:59.452Z,2.53
2018-11-14T15:40:27.890Z,1.87
2018-11-14T15:42:56.887Z,1.87
2018-11-14T15:45:27.196Z,2.33
2018-11-14T15:47:55.292Z,2.57
2018-11-14T15:50:24.771Z,2.30
2018-11-14T15:52:54.091Z,2.37
2018-11-14T15:55:22.376Z,2.33
2018-11-14T16:00:43.398Z,1.80
2018-11-14T16:03:11.497Z,1.40
2018-11-14T16:05:39.656Z,1.80
2018-11-14T16:08:07.671Z,1.60
2018-11-14T16:10:35.739Z,2.60
2018-11-14T16:13:03.831Z,1.40
2018-11-14T16:15:33.373Z,1.67
2018-11-14T16:18:01.533Z,2.03
2018-11-14T16:20:29.637Z,1.70
2018-11-14T16:22:57.748Z,2.67
2018-11-14T16:25:26.685Z,1.90
2018-11-14T16:27:56.101Z,1.80
2018-11-14T16:30:31.621Z,1.77
2018-11-14T16:33:00.939Z,2.27
2018-11-14T16:35:29.068Z,2.10
2018-11-14T16:37:57.238Z,2.43
2018-11-14T16:40:26.592Z,1.70
2018-11-14T16:42:55.694Z,1.90
2018-11-14T16:45:23.774Z,1.93
2018-11-14T16:47:51.881Z,2.03
2018-11-14T16:50:20.823Z,1.90
2018-11-14T16:52:49.116Z,2.17
2018-11-14T16:55:18.292Z,2.53
2018-11-14T16:57:47.084Z,3.03
2018-11-14T17:00:17.471Z,3.47
2018-11-14T17:02:45.561Z,4.20
2018-11-14T17:05:14.021Z,3.97
2018-11-14T17:07:42.149Z,2.50
2018-11-14T17:10:12.881Z,2.13
2018-11-14T17:12:41.370Z,3.00
2018-11-14T17:15:11.186Z,2.57
2018-11-14T17:17:39.284Z,2.10
2018-11-14T17:20:07.726Z,2.03
2018-11-14T17:22:35.811Z,2.57
2018-11-14T17:25:03.887Z,2.10
2018-11-14T17:27:31.994Z,2.57
2018-11-14T17:30:00.099Z,2.00
2018-11-14T17:32:28.405Z,2.27
2018-11-14T17:34:56.692Z,2.50
2018-11-14T17:37:24.754Z,2.20
2018-11-14T17:39:52.826Z,2.10
2018-11-14T17:42:20.984Z,2.10
2018-11-14T17:44:48.976Z,2.03
2018-11-14T17:47:17.135Z,2.47
2018-11-14T17:49:45.214Z,2.70
2018-11-14T17:52:13.290Z,3.10
2018-11-14T17:54:41.441Z,2.43
2018-11-14T17:57:09.499Z,2.27
2018-11-14T17:59:37.570Z,2.80
2018-11-14T18:02:05.866Z,4.40
2018-11-14T18:04:33.937Z,3.43
2018-11-14T18:07:02.016Z,2.77
2018-11-14T18:09:30.081Z,3.20
2018-11-14T18:11:58.138Z,3.40
2018-11-14T18:14:26.229Z,3.03
2018-11-14T18:16:54.303Z,3.73
2018-11-14T18:19:22.392Z,5.70
2018-11-14T18:21:50.475Z,3.93
2018-11-14T18:24:18.551Z,3.50
2018-11-14T18:26:46.619Z,3.20
2018-11-14T18:29:14.692Z,4.70
2018-11-14T18:31:42.776Z,3.47
2018-11-14T18:34:10.856Z,4.00
2018-11-14T18:36:38.937Z,4.40
2018-11-14T18:39:09.845Z,3.67
2018-11-14T18:41:37.959Z,3.70
2018-11-14T18:44:06.187Z,4.10
2018-11-14T18:46:34.267Z,3.63
2018-11-14T18:49:02.348Z,3.80
2018-11-14T18:51:30.467Z,4.90
2018-11-14T18:53:58.545Z,4.13
2018-11-14T18:56:26.623Z,4.37
2018-11-14T18:58:54.708Z,4.27
2018-11-14T19:01:22.800Z,3.70
2018-11-14T19:03:50.880Z,4.37
2018-11-14T19:06:19.049Z,3.50
2018-11-14T19:08:47.537Z,3.50
2018-11-14T19:11:15.603Z,3.23
2018-11-14T19:13:43.675Z,4.37
2018-11-14T19:16:11.803Z,3.30
2018-11-14T19:18:39.926Z,3.50
2018-11-14T19:21:07.991Z,3.60
2018-11-14T19:23:36.123Z,3.47
2018-11-14T19:26:04.410Z,3.50
2018-11-14T19:28:32.600Z,3.63
2018-11-14T19:31:00.695Z,3.20
2018-11-14T19:33:28.771Z,3.40
2018-11-14T19:35:56.861Z,3.07
2018-11-14T19:38:24.955Z,3.40
2018-11-14T19:40:53.103Z,3.63
2018-11-14T19:43:21.168Z,3.60
2018-11-14T19:45:49.259Z,3.77
2018-11-14T19:48:17.384Z,4.53
2018-11-14T19:50:45.505Z,3.57
2018-11-14T19:53:13.584Z,3.10
2018-11-14T19:55:41.747Z,3.17
2018-11-14T19:58:09.805Z,3.23
2018-11-14T20:00:39.003Z,3.97
2018-11-14T20:03:07.838Z,5.03
2018-11-14T20:05:35.937Z,3.83
2018-11-14T20:08:04.128Z,3.37
2018-11-14T20:10:33.312Z,4.17
2018-11-14T20:13:01.375Z,3.30
2018-11-14T20:15:30.863Z,5.13
2018-11-14T20:17:58.985Z,5.07
2018-11-14T20:20:29.527Z,5.30
2018-11-14T20:22:57.653Z,5.73
2018-11-14T20:25:25.763Z,5.40
2018-11-14T20:27:53.918Z,5.87
2018-11-14T20:30:25.330Z,4.50
2018-11-14T20:32:54.409Z,5.30
2018-11-14T20:35:23.290Z,5.07
2018-11-14T20:37:51.404Z,5.43
2018-11-14T20:40:20.571Z,4.93
2018-11-14T20:42:49.485Z,5.70
2018-11-14T20:45:19.272Z,5.53
2018-11-14T20:47:47.381Z,4.87
2018-11-14T20:50:16.843Z,5.50
2018-11-14T20:52:45.679Z,6.10
2018-11-14T20:55:13.980Z,6.10
2018-11-14T20:57:42.570Z,6.70
2018-11-14T21:00:19.064Z,6.80
2018-11-14T21:02:47.187Z,6.10
2018-11-14T21:05:15.319Z,6.33
2018-11-14T21:07:43.853Z,5.20
2018-11-14T21:10:13.512Z,4.97
2018-11-14T21:12:41.815Z,4.70
2018-11-14T21:15:11.750Z,4.20
2018-11-14T21:17:40.091Z,4.60
2018-11-14T21:20:08.874Z,5.40
2018-11-14T21:22:36.972Z,3.43
2018-11-14T21:25:06.597Z,3.80
2018-11-14T21:27:34.688Z,4.03
2018-11-14T21:30:02.794Z,3.73
2018-11-14T21:32:31.303Z,5.20
2018-11-14T21:34:59.383Z,5.30
2018-11-14T21:37:27.488Z,4.33
2018-11-14T21:39:55.585Z,5.03
2018-11-14T21:42:23.700Z,4.33
2018-11-14T21:44:51.807Z,4.30
2018-11-14T21:47:24.250Z,5.37
2018-11-14T21:49:52.344Z,5.47
2018-11-14T21:52:20.431Z,7.00
2018-11-14T21:54:48.527Z,6.33
2018-11-14T21:57:16.623Z,8.13
2018-11-14T21:59:44.734Z,6.70
2018-11-14T22:02:12.804Z,6.90
2018-11-14T22:04:40.908Z,6.10
2018-11-14T22:07:09.004Z,7.30
2018-11-14T22:09:37.112Z,7.17
2018-11-14T22:12:05.212Z,7.73
2018-11-14T22:14:33.303Z,5.83
2018-11-14T22:17:01.452Z,6.67
2018-11-14T22:19:29.686Z,18.20
2018-11-14T22:21:57.759Z,12.60
2018-11-14T22:24:25.881Z,9.20
2018-11-14T22:26:53.996Z,7.10
2018-11-14T22:29:22.161Z,6.63
2018-11-14T22:31:50.275Z,6.63
2018-11-14T22:34:18.398Z,7.20
2018-11-14T22:36:46.512Z,6.43
2018-11-14T22:39:14.645Z,7.50
2018-11-14T22:41:42.946Z,7.13
2018-11-14T22:44:11.072Z,6.57
2018-11-14T22:46:39.494Z,6.63
2018-11-14T22:49:07.630Z,6.83
2018-11-14T22:51:35.741Z,6.13
2018-11-14T22:54:04.036Z,5.97
2018-11-14T22:56:32.146Z,6.70
2018-11-14T22:59:00.262Z,6.20
2018-11-14T23:01:28.452Z,6.83
2018-11-14T23:03:56.591Z,6.57
2018-11-14T23:06:24.713Z,5.57
2018-11-14T23:08:52.822Z,6.17
2018-11-14T23:11:20.935Z,5.97
2018-11-14T23:13:49.075Z,6.87
2018-11-14T23:16:24.618Z,5.97
2018-11-14T23:18:52.939Z,5.80
2018-11-14T23:21:21.016Z,5.23
2018-11-14T23:23:49.120Z,5.93
2018-11-14T23:26:17.208Z,6.53
2018-11-14T23:28:45.290Z,5.10
2018-11-14T23:31:13.465Z,5.30
2018-11-14T23:33:48.571Z,5.93
2018-11-14T23:36:16.668Z,7.50
2018-11-14T23:38:44.756Z,5.53
2018-11-14T23:41:12.867Z,6.37
2018-11-14T23:43:40.952Z,6.63
2018-11-14T23:46:09.038Z,5.33
2018-11-14T23:48:37.144Z,5.70
2018-11-14T23:51:05.853Z,5.40
2018-11-14T23:53:33.937Z,5.60
2018-11-14T23:56:02.159Z,5.30
2018-11-14T23:58:30.253Z,5.43
